Time;durP1;ratioP1;P1;durP2;ratioP2;P2;SDS_P1;SDS_P2;PMS_P1;PMS_P2;Temp;Humidity;BMP_temperature;BMP_pressure;BME280_temperature;BME280_humidity;BME280_pressure;Samples;Min_cycle;Max_cycle;Signal;HPM_P1;HPM_P2
2021/01/21 00:01:22;;;;;;;4.68;1.60;;;16.50;58.40;;;;;;4962736;28;20118;-60
2021/01/21 00:03:48;;;;;;;5.63;1.73;;;16.50;59.10;;;;;;4942909;29;20027;-60
2021/01/21 00:06:13;;;;;;;6.05;2.08;;;16.40;59.20;;;;;;4952961;28;20030;-62
2021/01/21 00:08:40;;;;;;;5.07;1.60;;;16.50;59.00;;;;;;4971247;28;20034;-61
2021/01/21 00:11:06;;;;;;;5.05;1.75;;;16.40;58.20;;;;;;4969375;28;20042;-61
2021/01/21 00:13:31;;;;;;;4.45;1.50;;;16.50;58.80;;;;;;4964842;28;20041;-61
2021/01/21 00:15:57;;;;;;;5.03;1.90;;;16.50;58.50;;;;;;4973440;28;20547;-62
2021/01/21 00:18:23;;;;;;;6.57;1.70;;;16.50;58.80;;;;;;4973013;28;20073;-61
2021/01/21 00:20:48;;;;;;;5.30;1.58;;;16.40;58.80;;;;;;4970178;28;20034;-60
2021/01/21 00:23:14;;;;;;;5.75;1.63;;;16.40;58.60;;;;;;4978106;28;20514;-63
2021/01/21 00:25:40;;;;;;;9.57;3.35;;;16.40;58.70;;;;;;4970785;28;20058;-60
2021/01/21 00:28:05;;;;;;;10.35;4.38;;;16.40;58.70;;;;;;4956136;28;20018;-61
2021/01/21 00:30:31;;;;;;;9.07;3.28;;;16.40;58.90;;;;;;4970996;28;20027;-60
2021/01/21 00:32:57;;;;;;;6.90;2.33;;;16.40;58.50;;;;;;4990347;28;20072;-60
2021/01/21 00:35:22;;;;;;;7.60;2.10;;;16.40;59.20;;;;;;4979084;28;20098;-62
2021/01/21 00:37:48;;;;;;;4.63;1.77;;;16.40;57.90;;;;;;4947050;29;20027;-60
2021/01/21 00:40:14;;;;;;;5.75;2.17;;;16.40;58.50;;;;;;4979781;28;20034;-61
2021/01/21 00:42:39;;;;;;;6.80;2.10;;;16.40;58.90;;;;;;4969101;28;20042;-62
2021/01/21 00:45:11;;;;;;;6.22;2.10;;;16.40;58.00;;;;;;4974871;28;20121;-60
2021/01/21 00:47:58;;;;;;;5.80;1.98;;;16.30;58.00;;;;;;4957365;28;20033;-60
2021/01/21 00:50:24;;;;;;;5.57;1.85;;;16.20;58.60;;;;;;4973228;28;20027;-62
2021/01/21 00:56:13;;;;;;;5.78;1.98;;;16.40;58.60;;;;;;4973891;28;20077;-60
2021/01/21 00:58:38;;;;;;;3.78;1.58;;;16.30;58.00;;;;;;4974621;28;20396;-61
2021/01/21 01:01:04;;;;;;;5.05;1.50;;;16.30;57.80;;;;;;4974369;28;20042;-63
2021/01/21 01:03:29;;;;;;;6.40;1.98;;;16.30;58.70;;;;;;4992454;28;20093;-60
2021/01/21 01:05:55;;;;;;;6.28;1.80;;;16.40;58.50;;;;;;4974904;28;20030;-60
2021/01/21 01:08:20;;;;;;;4.88;1.50;;;16.30;58.70;;;;;;4993785;28;20105;-61
2021/01/21 01:10:46;;;;;;;6.18;1.80;;;16.30;58.70;;;;;;4993945;28;20026;-63
2021/01/21 01:13:11;;;;;;;3.92;1.48;;;16.30;58.70;;;;;;4985849;28;20027;-60
2021/01/21 01:15:37;;;;;;;4.18;1.50;;;16.30;58.80;;;;;;4965433;28;20496;-59
2021/01/21 01:18:03;;;;;;;5.13;1.70;;;16.30;57.70;;;;;;4973265;28;20439;-61
2021/01/21 01:20:28;;;;;;;5.18;1.80;;;16.30;58.50;;;;;;4974602;28;20389;-62
2021/01/21 01:22:55;;;;;;;5.75;1.52;;;16.30;58.40;;;;;;4981838;28;20035;-63
2021/01/21 01:25:21;;;;;;;5.20;1.75;;;16.30;57.50;;;;;;4974385;28;20042;-64
2021/01/21 01:27:49;;;;;;;4.78;1.50;;;16.30;58.40;;;;;;4956179;28;20053;-61
2021/01/21 01:30:16;;;;;;;5.22;1.65;;;16.30;58.20;;;;;;4977444;28;20641;-61
2021/01/21 01:32:45;;;;;;;4.43;1.60;;;16.20;58.50;;;;;;4970565;28;20036;-62
2021/01/21 01:35:11;;;;;;;4.40;1.50;;;16.20;57.80;;;;;;4951710;28;20450;-61
2021/01/21 01:37:39;;;;;;;4.88;1.55;;;16.20;58.80;;;;;;4972649;28;20119;-65
2021/01/21 01:43:26;;;;;;;5.63;1.80;;;16.20;57.70;;;;;;4968067;28;20129;-60
2021/01/21 01:45:52;;;;;;;6.20;1.70;;;16.30;57.70;;;;;;4955149;28;20034;-61
2021/01/21 01:48:18;;;;;;;3.83;1.48;;;16.20;57.80;;;;;;4955910;28;20035;-61
2021/01/21 01:50:44;;;;;;;3.58;1.27;;;16.20;58.40;;;;;;4955764;28;20023;-60
2021/01/21 01:53:10;;;;;;;4.55;1.55;;;16.20;58.20;;;;;;4973186;28;20536;-60
2021/01/21 01:58:58;;;;;;;8.13;1.75;;;16.20;58.10;;;;;;4971851;28;20143;-64
2021/01/21 02:01:24;;;;;;;6.32;1.40;;;16.10;58.10;;;;;;4973482;28;20034;-62
2021/01/21 02:03:49;;;;;;;5.43;1.50;;;16.10;58.50;;;;;;4973203;28;20027;-61
2021/01/21 02:06:15;;;;;;;4.10;1.45;;;16.10;57.60;;;;;;4956142;28;20030;-60
2021/01/21 02:08:42;;;;;;;5.25;1.30;;;16.10;57.70;;;;;;4972815;28;20058;-60
2021/01/21 02:11:53;;;;;;;3.70;1.20;;;16.20;58.40;;;;;;4955916;28;20027;-60
2021/01/21 02:14:44;;;;;;;3.20;0.98;;;16.00;58.40;;;;;;4955782;28;20065;-62
2021/01/21 02:17:16;;;;;;;4.90;1.30;;;16.00;58.20;;;;;;4955885;28;20527;-63
2021/01/21 02:20:06;;;;;;;3.72;1.40;;;15.90;58.40;;;;;;4973291;28;20026;-62
2021/01/21 02:23:06;;;;;;;5.10;1.60;;;16.00;58.60;;;;;;4973084;28;20031;-62
2021/01/21 02:25:40;;;;;;;5.63;1.23;;;16.00;58.10;;;;;;4973234;28;20026;-60
2021/01/21 02:28:08;;;;;;;3.70;1.00;;;16.00;58.10;;;;;;4972556;28;20042;-63
2021/01/21 02:30:55;;;;;;;4.78;1.40;;;16.00;58.10;;;;;;4973137;28;20027;-63
2021/01/21 02:33:48;;;;;;;3.30;1.17;;;16.00;58.20;;;;;;4955462;28;20022;-62
2021/01/21 02:36:19;;;;;;;4.25;1.20;;;15.90;57.60;;;;;;4973112;28;20113;-60
2021/01/21 02:38:46;;;;;;;2.85;1.10;;;15.90;58.10;;;;;;4955299;28;20488;-60
2021/01/21 02:41:13;;;;;;;3.53;1.13;;;15.90;58.30;;;;;;4955201;28;20034;-61
2021/01/21 02:43:39;;;;;;;4.28;1.20;;;15.90;57.70;;;;;;4954663;28;20117;-61
2021/01/21 02:46:04;;;;;;;5.32;1.40;;;15.90;57.80;;;;;;4972481;28;20098;-60
2021/01/21 02:48:31;;;;;;;4.82;1.15;;;16.00;57.80;;;;;;4955226;28;20066;-60
2021/01/21 02:51:25;;;;;;;4.63;1.23;;;15.90;57.50;;;;;;4955194;28;20019;-60
2021/01/21 02:54:01;;;;;;;2.78;1.00;;;15.90;57.10;;;;;;4955351;28;20066;-60
2021/01/21 02:56:30;;;;;;;4.07;1.20;;;16.00;58.30;;;;;;4972652;28;20041;-60
2021/01/21 02:58:57;;;;;;;5.65;2.15;;;16.00;58.20;;;;;;4972156;28;20126;-61
2021/01/21 03:01:23;;;;;;;5.10;1.60;;;15.90;57.70;;;;;;4972449;28;20030;-60
2021/01/21 03:03:51;;;;;;;3.08;1.20;;;16.10;57.50;;;;;;4972677;28;20030;-61
2021/01/21 03:06:20;;;;;;;2.58;1.10;;;16.00;57.90;;;;;;4955267;28;20034;-60
2021/01/21 03:08:45;;;;;;;4.05;1.33;;;16.10;58.10;;;;;;4972006;28;20034;-61
2021/01/21 03:11:12;;;;;;;4.15;1.40;;;16.10;57.90;;;;;;4972402;28;20043;-61
2021/01/21 03:13:45;;;;;;;4.60;1.30;;;16.00;57.10;;;;;;4971075;28;20109;-62
2021/01/21 03:16:11;;;;;;;2.67;1.27;;;15.90;57.30;;;;;;4972847;28;20034;-61
2021/01/21 03:18:37;;;;;;;4.78;1.40;;;15.90;57.40;;;;;;4973775;28;20030;-61
2021/01/21 03:21:02;;;;;;;4.05;1.25;;;15.90;58.40;;;;;;4981059;28;20058;-63
2021/01/21 03:23:28;;;;;;;4.93;1.30;;;15.90;58.10;;;;;;4983630;28;20512;-63
2021/01/21 03:25:54;;;;;;;3.70;1.33;;;15.90;58.00;;;;;;4983187;28;20031;-62
2021/01/21 03:28:19;;;;;;;3.15;1.20;;;15.80;57.80;;;;;;4981406;28;20515;-62
2021/01/21 03:30:45;;;;;;;2.70;1.08;;;15.80;57.90;;;;;;4979997;28;20038;-63
2021/01/21 03:33:11;;;;;;;3.17;1.05;;;15.80;57.30;;;;;;4972320;28;20102;-63
2021/01/21 03:35:36;;;;;;;5.32;1.30;;;15.80;58.20;;;;;;4970903;28;20126;-61
2021/01/21 03:38:02;;;;;;;4.65;1.30;;;15.80;58.00;;;;;;4971949;28;20113;-61
2021/01/21 03:40:28;;;;;;;5.53;1.40;;;15.90;57.60;;;;;;4971957;28;20124;-61
2021/01/21 03:42:53;;;;;;;4.88;1.27;;;15.90;57.70;;;;;;4971238;28;20042;-62
2021/01/21 03:45:19;;;;;;;3.30;1.20;;;15.90;57.80;;;;;;4954271;28;20066;-63
2021/01/21 03:47:45;;;;;;;4.47;1.13;;;15.90;58.10;;;;;;4972041;28;20093;-60
2021/01/21 03:50:11;;;;;;;2.90;1.10;;;16.00;57.50;;;;;;4971668;28;20030;-61
2021/01/21 03:52:36;;;;;;;3.22;1.17;;;16.00;57.90;;;;;;4971683;28;20030;-59
2021/01/21 03:55:02;;;;;;;2.25;1.10;;;16.10;58.50;;;;;;4971917;28;20027;-62
2021/01/21 03:57:28;;;;;;;6.03;1.48;;;16.10;58.20;;;;;;4971783;28;20105;-62
2021/01/21 03:59:53;;;;;;;2.92;1.10;;;16.00;57.80;;;;;;4953916;28;20117;-65
2021/01/21 04:02:19;;;;;;;2.30;1.00;;;16.00;57.70;;;;;;4971656;28;20035;-60
2021/01/21 04:04:44;;;;;;;3.78;1.13;;;15.90;58.20;;;;;;4971792;28;20031;-61
2021/01/21 04:07:10;;;;;;;4.32;1.40;;;15.90;57.90;;;;;;4954583;28;20034;-61
2021/01/21 04:09:35;;;;;;;2.38;1.00;;;15.80;58.10;;;;;;4960987;28;20082;-60
2021/01/21 04:12:01;;;;;;;2.53;1.05;;;15.90;58.00;;;;;;4975341;28;20034;-61
2021/01/21 04:14:26;;;;;;;2.95;1.30;;;15.90;58.00;;;;;;4973945;28;20065;-60
2021/01/21 04:16:52;;;;;;;3.45;0.90;;;16.00;57.70;;;;;;4975571;28;20435;-63
2021/01/21 04:19:17;;;;;;;3.35;1.10;;;16.00;58.20;;;;;;4974230;28;20033;-60
2021/01/21 04:21:43;;;;;;;3.33;1.10;;;15.90;56.90;;;;;;4973640;28;20165;-60
2021/01/21 04:24:09;;;;;;;3.35;1.23;;;15.90;56.70;;;;;;4974083;28;20117;-62
2021/01/21 04:26:35;;;;;;;3.45;1.15;;;15.90;58.20;;;;;;4974136;28;20022;-63
2021/01/21 04:29:01;;;;;;;2.95;1.27;;;15.80;56.70;;;;;;4973300;28;20484;-60
2021/01/21 04:31:26;;;;;;;2.67;1.20;;;15.80;57.30;;;;;;4973826;28;20033;-64
2021/01/21 04:33:52;;;;;;;3.13;1.10;;;15.80;56.70;;;;;;4975194;28;20029;-61
2021/01/21 04:36:17;;;;;;;4.03;1.10;;;15.90;57.20;;;;;;4975211;28;20029;-60
2021/01/21 04:38:43;;;;;;;3.03;1.25;;;15.90;58.00;;;;;;4975083;28;20026;-62
2021/01/21 04:41:09;;;;;;;3.38;1.00;;;15.90;57.80;;;;;;4973860;28;20035;-60
2021/01/21 04:43:34;;;;;;;2.55;1.00;;;15.90;57.70;;;;;;4956771;28;20487;-63
2021/01/21 04:46:00;;;;;;;2.90;1.10;;;15.80;58.00;;;;;;4978068;28;20066;-61
2021/01/21 04:48:27;;;;;;;2.63;1.05;;;15.90;58.10;;;;;;4974750;28;20034;-61
2021/01/21 04:50:53;;;;;;;2.53;1.00;;;15.80;57.50;;;;;;4974548;28;20019;-60
2021/01/21 04:53:24;;;;;;;3.20;1.17;;;15.80;57.70;;;;;;4957196;28;20612;-62
2021/01/21 04:56:01;;;;;;;3.00;1.23;;;15.80;57.40;;;;;;4975709;28;20027;-62
2021/01/21 04:58:35;;;;;;;3.08;1.05;;;15.80;58.30;;;;;;4958279;28;20033;-61
2021/01/21 05:01:01;;;;;;;11.18;1.15;;;15.80;58.20;;;;;;4976396;28;20476;-60
2021/01/21 05:03:28;;;;;;;2.47;1.00;;;15.80;58.50;;;;;;4994179;28;20033;-62
2021/01/21 05:05:54;;;;;;;2.15;1.00;;;15.90;58.20;;;;;;4993200;28;20026;-62
2021/01/21 05:08:20;;;;;;;3.08;0.90;;;15.90;58.10;;;;;;4976482;28;20025;-60
2021/01/21 05:10:48;;;;;;;3.33;1.27;;;15.80;58.20;;;;;;4988459;28;20538;-61
2021/01/21 05:13:13;;;;;;;2.28;0.90;;;15.80;57.90;;;;;;4966845;28;20106;-61
2021/01/21 05:15:39;;;;;;;3.65;1.00;;;15.80;58.20;;;;;;4974588;28;20122;-60
2021/01/21 05:18:04;;;;;;;2.53;1.00;;;15.80;57.40;;;;;;4993859;28;20565;-61
2021/01/21 05:20:35;;;;;;;2.90;0.95;;;15.90;57.90;;;;;;4993474;28;20092;-61
2021/01/21 05:23:03;;;;;;;1.92;0.90;;;15.80;57.80;;;;;;4975908;28;20030;-61
2021/01/21 05:25:30;;;;;;;2.85;1.05;;;15.80;57.00;;;;;;4993196;28;20026;-61
2021/01/21 05:27:57;;;;;;;2.85;0.98;;;15.80;58.70;;;;;;4993554;28;20050;-62
2021/01/21 05:30:30;;;;;;;2.50;1.17;;;15.80;57.90;;;;;;4992853;28;20030;-62
2021/01/21 05:32:58;;;;;;;3.22;0.82;;;15.70;57.70;;;;;;4973877;28;20459;-61
2021/01/21 05:35:25;;;;;;;3.70;0.98;;;15.70;58.00;;;;;;4956312;28;20492;-63
2021/01/21 05:37:54;;;;;;;2.00;0.80;;;15.70;58.60;;;;;;4955810;28;20031;-61
2021/01/21 05:40:26;;;;;;;3.30;1.10;;;15.70;58.00;;;;;;4973763;28;20046;-61
2021/01/21 05:42:56;;;;;;;2.95;1.10;;;15.70;57.60;;;;;;4973545;28;20078;-63
2021/01/21 05:45:24;;;;;;;2.13;0.80;;;15.60;57.80;;;;;;4972992;28;20391;-63
2021/01/21 05:47:53;;;;;;;3.42;1.00;;;15.60;58.10;;;;;;4949034;29;20082;-63
2021/01/21 05:50:19;;;;;;;7.05;1.45;;;15.60;58.10;;;;;;4943021;28;20661;-61
2021/01/21 05:52:45;;;;;;;8.27;3.20;;;15.60;57.30;;;;;;4968212;28;20026;-60
2021/01/21 05:55:11;;;;;;;7.35;2.15;;;15.60;57.80;;;;;;4966104;28;20644;-61
2021/01/21 05:57:37;;;;;;;10.32;2.20;;;15.60;59.40;;;;;;4972448;28;20030;-61
2021/01/21 06:00:04;;;;;;;8.32;2.40;;;15.50;58.90;;;;;;4975326;28;20022;-62
2021/01/21 06:02:30;;;;;;;7.40;3.42;;;15.70;59.30;;;;;;4987828;28;20563;-62
2021/01/21 06:04:59;;;;;;;14.95;3.55;;;15.70;59.20;;;;;;4964402;28;20047;-62
2021/01/21 06:07:30;;;;;;;6.10;1.73;;;15.70;58.90;;;;;;4975419;28;20027;-63
2021/01/21 06:09:58;;;;;;;8.48;1.75;;;15.80;59.20;;;;;;4970695;28;20505;-63
2021/01/21 06:12:27;;;;;;;9.23;2.35;;;15.80;59.20;;;;;;4972372;28;20027;-61
2021/01/21 06:14:59;;;;;;;7.70;1.38;;;15.90;58.80;;;;;;4971047;28;20065;-60
2021/01/21 06:17:25;;;;;;;6.45;1.60;;;16.00;58.50;;;;;;4974321;28;20037;-61
2021/01/21 06:19:51;;;;;;;8.77;1.70;;;16.00;58.40;;;;;;4980645;28;20031;-60
2021/01/21 06:22:19;;;;;;;12.55;2.30;;;16.00;58.40;;;;;;4970883;28;20027;-62
2021/01/21 06:24:48;;;;;;;9.98;1.73;;;16.00;57.90;;;;;;4972578;28;20031;-60
2021/01/21 06:27:15;;;;;;;5.53;1.50;;;15.80;58.70;;;;;;4982283;28;20041;-61
2021/01/21 06:29:49;;;;;;;13.27;2.25;;;15.70;58.90;;;;;;4981714;28;20037;-64
2021/01/21 06:32:18;;;;;;;8.23;1.50;;;15.70;59.90;;;;;;4953750;28;20023;-61
2021/01/21 06:34:44;;;;;;;8.35;1.77;;;15.90;59.70;;;;;;4954704;28;20125;-61
2021/01/21 06:37:15;;;;;;;8.40;1.80;;;15.90;59.40;;;;;;4989120;28;20104;-61
2021/01/21 06:39:55;;;;;;;13.57;2.10;;;15.90;59.80;;;;;;4966505;28;20038;-61
2021/01/21 06:42:29;;;;;;;12.60;2.13;;;16.00;60.40;;;;;;4973168;28;20027;-66
2021/01/21 06:44:56;;;;;;;93.57;84.00;;;16.20;61.60;;;;;;4961433;28;20049;-63
2021/01/21 06:47:22;;;;;;;54.92;49.33;;;16.40;59.80;;;;;;4966199;28;20035;-61
2021/01/21 06:49:53;;;;;;;49.05;28.88;;;16.50;59.50;;;;;;4940111;28;20035;-61
2021/01/21 06:52:19;;;;;;;32.58;29.00;;;16.60;59.20;;;;;;4967609;28;20509;-61
2021/01/21 06:54:45;;;;;;;29.00;23.20;;;16.60;59.10;;;;;;4963416;28;20177;-60
2021/01/21 06:57:37;;;;;;;26.83;23.92;;;16.70;58.80;;;;;;4977643;28;20082;-59
2021/01/21 07:00:13;;;;;;;24.08;20.08;;;16.70;58.70;;;;;;4970563;28;20049;-59
2021/01/21 07:02:44;;;;;;;27.45;24.70;;;16.80;58.60;;;;;;4971301;28;20034;-60
2021/01/21 07:05:21;;;;;;;23.33;20.77;;;16.80;58.60;;;;;;4966487;28;20031;-62
2021/01/21 07:07:55;;;;;;;21.35;18.52;;;16.80;58.60;;;;;;4991282;28;20026;-59
2021/01/21 07:10:35;;;;;;;19.25;16.83;;;16.80;58.60;;;;;;4980428;28;20026;-60
2021/01/21 07:13:03;;;;;;;19.08;15.82;;;16.80;58.70;;;;;;4968385;28;20049;-60
2021/01/21 07:15:34;;;;;;;55.95;43.67;;;16.70;58.70;;;;;;4955732;28;20069;-59
2021/01/21 07:18:04;;;;;;;39.35;30.50;;;16.80;58.90;;;;;;4954133;28;20022;-59
2021/01/21 07:27:17;;;;;;;27.58;20.73;;;16.80;59.00;;;;;;4975367;28;20912;-63
2021/01/21 07:29:42;;;;;;;25.13;18.17;;;16.80;58.90;;;;;;4976400;28;20093;-61
2021/01/21 07:32:09;;;;;;;22.63;16.48;;;16.80;59.00;;;;;;4969740;28;20496;-60
2021/01/21 07:34:44;;;;;;;23.98;16.00;;;16.90;58.90;;;;;;4975522;28;20602;-61
2021/01/21 07:37:11;;;;;;;22.23;14.77;;;16.90;59.10;;;;;;4953990;28;20065;-62
2021/01/21 07:39:50;;;;;;;18.65;13.20;;;16.90;58.90;;;;;;4970943;28;20027;-61
2021/01/21 07:42:16;;;;;;;16.75;12.77;;;16.90;58.90;;;;;;4970994;28;20035;-59
2021/01/21 07:44:55;;;;;;;19.90;12.10;;;16.90;59.00;;;;;;4970236;28;20559;-59
2021/01/21 07:47:35;;;;;;;14.88;11.68;;;16.90;58.90;;;;;;4974679;28;20031;-59
2021/01/21 07:50:19;;;;;;;14.95;10.98;;;17.00;58.90;;;;;;4965528;28;20058;-62
2021/01/21 07:52:45;;;;;;;15.55;10.30;;;17.10;58.90;;;;;;4968060;28;20015;-61
2021/01/21 07:55:11;;;;;;;18.40;10.57;;;17.10;58.80;;;;;;4968917;28;20019;-62
2021/01/21 07:57:37;;;;;;;17.77;10.20;;;17.10;58.60;;;;;;4961216;28;20030;-60
2021/01/21 08:00:10;;;;;;;17.80;9.77;;;17.10;59.20;;;;;;4973360;28;20110;-61
2021/01/21 08:02:50;;;;;;;15.90;9.75;;;17.00;59.20;;;;;;4990361;28;20452;-60
2021/01/21 08:05:19;;;;;;;85.15;73.85;;;17.00;59.30;;;;;;4973383;28;20027;-60
2021/01/21 08:07:50;;;;;;;57.90;51.83;;;17.00;59.30;;;;;;4990995;28;20106;-60
2021/01/21 08:10:19;;;;;;;83.10;72.72;;;17.00;59.60;;;;;;4989982;28;20049;-60
2021/01/21 08:12:59;;;;;;;125.93;112.00;;;16.90;59.20;;;;;;4968085;28;20022;-61
2021/01/21 08:15:26;;;;;;;450.35;381.45;;;16.90;58.20;;;;;;4971432;28;20105;-60
2021/01/21 08:17:52;;;;;;;115.88;95.53;;;16.80;59.70;;;;;;4969920;28;20022;-60
2021/01/21 08:20:20;;;;;;;60.33;52.08;;;16.80;59.40;;;;;;4971638;28;20022;-62
2021/01/21 08:23:10;;;;;;;184.88;164.15;;;16.80;59.30;;;;;;4953591;28;20031;-59
2021/01/21 08:26:01;;;;;;;110.18;98.47;;;16.80;59.60;;;;;;4978139;28;20538;-60
2021/01/21 08:28:28;;;;;;;245.90;222.32;;;16.80;59.90;;;;;;4957557;28;20134;-61
2021/01/21 08:30:53;;;;;;;308.13;276.98;;;16.70;59.50;;;;;;4951178;28;20022;-60
2021/01/21 08:33:25;;;;;;;216.82;194.05;;;16.60;60.30;;;;;;4952184;28;20027;-60
2021/01/21 08:36:04;;;;;;;102.18;91.63;;;16.60;60.10;;;;;;4969078;28;20043;-62
2021/01/21 08:38:35;;;;;;;113.95;102.05;;;16.70;59.90;;;;;;4970883;28;20023;-60
2021/01/21 08:41:02;;;;;;;103.60;93.07;;;16.70;59.40;;;;;;4973552;28;20117;-60
2021/01/21 08:43:29;;;;;;;73.13;65.38;;;16.80;59.80;;;;;;4977077;28;20022;-59
2021/01/21 08:49:17;;;;;;;445.38;361.95;;;16.80;60.00;;;;;;4971036;28;20411;-59
2021/01/21 08:51:42;;;;;;;202.80;154.20;;;16.80;59.60;;;;;;4976736;28;20122;-59
2021/01/21 08:54:18;;;;;;;119.57;99.28;;;16.80;59.90;;;;;;4977196;28;20372;-62
2021/01/21 08:57:05;;;;;;;88.53;76.57;;;16.80;60.20;;;;;;4966323;28;20499;-60
2021/01/21 08:59:34;;;;;;;80.15;67.68;;;16.80;60.40;;;;;;4970785;28;20395;-60
2021/01/21 09:02:00;;;;;;;72.05;58.70;;;16.90;59.80;;;;;;4981524;28;20033;-61
2021/01/21 09:04:28;;;;;;;71.30;55.40;;;16.80;59.30;;;;;;4965951;28;20027;-60
2021/01/21 09:10:16;;;;;;;56.08;47.83;;;16.80;59.20;;;;;;4980977;28;20104;-59
2021/01/21 09:12:42;;;;;;;154.77;139.25;;;16.80;59.90;;;;;;4983228;28;20018;-60
2021/01/21 09:15:12;;;;;;;73.90;65.88;;;16.80;59.70;;;;;;4961317;28;20799;-59
2021/01/21 09:17:40;;;;;;;54.63;46.45;;;16.80;59.40;;;;;;4985939;28;20029;-62
2021/01/21 09:20:20;;;;;;;47.35;42.20;;;16.70;60.20;;;;;;4988806;28;20034;-59
2021/01/21 09:22:46;;;;;;;48.28;39.75;;;16.80;59.80;;;;;;4976676;28;20069;-59
2021/01/21 09:25:12;;;;;;;44.50;37.72;;;16.80;59.70;;;;;;4973587;28;20023;-60
2021/01/21 09:27:39;;;;;;;46.35;35.72;;;16.80;59.10;;;;;;4974771;28;20031;-62
2021/01/21 09:30:11;;;;;;;48.50;39.78;;;16.80;59.50;;;;;;4975202;28;20061;-62
2021/01/21 09:32:42;;;;;;;50.22;36.25;;;16.70;59.00;;;;;;4961831;28;20023;-60
2021/01/21 09:35:22;;;;;;;45.53;33.83;;;16.70;60.60;;;;;;4958890;28;20038;-60
2021/01/21 09:37:50;;;;;;;41.05;30.98;;;16.70;60.00;;;;;;4961208;28;20455;-61
2021/01/21 09:40:30;;;;;;;38.92;30.13;;;16.70;59.90;;;;;;4973337;28;20029;-59
2021/01/21 09:43:01;;;;;;;40.85;29.20;;;16.50;60.90;;;;;;4965851;28;20033;-60
2021/01/21 09:45:28;;;;;;;36.22;27.98;;;16.50;61.00;;;;;;4971693;28;20039;-61
2021/01/21 09:47:54;;;;;;;36.92;26.65;;;16.50;60.80;;;;;;4973428;28;20049;-60
2021/01/21 09:50:20;;;;;;;36.17;25.10;;;16.50;61.30;;;;;;4967204;28;20035;-61
2021/01/21 09:52:46;;;;;;;34.75;23.65;;;16.60;59.30;;;;;;4967156;28;20015;-60
2021/01/21 09:55:12;;;;;;;30.00;20.55;;;16.60;59.60;;;;;;4942215;28;20030;-61
2021/01/21 09:57:39;;;;;;;27.10;20.23;;;16.60;58.90;;;;;;4972429;28;20488;-59
2021/01/21 10:00:09;;;;;;;24.75;19.75;;;16.60;58.20;;;;;;4956043;28;20054;-60
2021/01/21 10:02:35;;;;;;;24.42;18.38;;;16.50;59.00;;;;;;4989827;28;20036;-60
2021/01/21 10:05:01;;;;;;;27.88;17.50;;;16.60;59.00;;;;;;4955876;28;20027;-61
2021/01/21 10:07:26;;;;;;;24.10;16.98;;;16.50;58.30;;;;;;4954705;28;20070;-62
2021/01/21 10:09:52;;;;;;;23.02;16.80;;;16.50;60.30;;;;;;4973307;28;20564;-60
2021/01/21 10:12:17;;;;;;;21.10;17.15;;;16.60;58.20;;;;;;4955603;28;20053;-60
2021/01/21 10:14:43;;;;;;;22.75;15.80;;;16.60;58.20;;;;;;4973066;28;20030;-60
2021/01/21 10:17:09;;;;;;;21.77;14.68;;;16.60;57.10;;;;;;4972891;28;20109;-61
2021/01/21 10:19:35;;;;;;;19.90;14.52;;;16.60;58.60;;;;;;4972730;28;20038;-61
2021/01/21 10:22:01;;;;;;;20.55;14.35;;;16.50;58.40;;;;;;4964572;28;20571;-59
2021/01/21 10:24:29;;;;;;;25.73;14.07;;;16.70;57.80;;;;;;4954107;28;20043;-59
2021/01/21 10:26:55;;;;;;;18.55;13.25;;;16.70;57.60;;;;;;4975431;28;20122;-60
2021/01/21 10:29:20;;;;;;;17.77;12.90;;;16.60;57.70;;;;;;4953781;29;20063;-59
2021/01/21 10:31:46;;;;;;;16.65;11.73;;;16.70;58.80;;;;;;4946009;28;20029;-60
2021/01/21 10:34:12;;;;;;;16.70;11.48;;;16.70;56.40;;;;;;4942063;28;20031;-61
2021/01/21 10:36:37;;;;;;;14.65;10.80;;;16.70;57.20;;;;;;4939099;28;20019;-62
2021/01/21 10:39:06;;;;;;;15.10;9.95;;;16.80;56.50;;;;;;4959589;28;20449;-60
2021/01/21 10:41:32;;;;;;;16.90;11.20;;;16.90;56.90;;;;;;4972463;28;20518;-60
2021/01/21 10:43:58;;;;;;;15.85;10.40;;;17.00;57.00;;;;;;4972455;28;20054;-61
2021/01/21 10:46:24;;;;;;;15.52;10.38;;;17.00;58.40;;;;;;4971423;28;20066;-61
2021/01/21 10:48:49;;;;;;;13.30;9.68;;;16.90;55.80;;;;;;4972400;28;20034;-61
2021/01/21 10:51:15;;;;;;;11.82;8.80;;;16.90;55.70;;;;;;4971377;28;20027;-59
2021/01/21 10:53:41;;;;;;;12.45;8.68;;;16.80;55.10;;;;;;4968416;28;21313;-59
2021/01/21 10:56:06;;;;;;;15.55;8.32;;;16.80;55.10;;;;;;4963385;28;20081;-63
2021/01/21 10:58:32;;;;;;;12.65;7.38;;;16.90;55.10;;;;;;4996016;28;20109;-61
2021/01/21 11:00:58;;;;;;;15.50;9.18;;;16.90;54.00;;;;;;4989187;28;20119;-61
2021/01/21 11:03:23;;;;;;;15.77;8.70;;;17.00;57.80;;;;;;4970345;28;20586;-59
2021/01/21 11:05:49;;;;;;;14.13;8.32;;;17.10;57.50;;;;;;4969183;28;20113;-60
2021/01/21 11:08:15;;;;;;;14.23;7.25;;;17.10;57.20;;;;;;4976090;28;20049;-61
2021/01/21 11:10:41;;;;;;;14.23;7.60;;;17.10;54.10;;;;;;4973291;28;20018;-60
2021/01/21 11:13:07;;;;;;;15.05;8.30;;;17.00;56.00;;;;;;4935583;29;20055;-61
2021/01/21 11:15:33;;;;;;;17.15;8.27;;;17.10;57.90;;;;;;4955120;28;20689;-60
2021/01/21 11:17:59;;;;;;;22.10;9.57;;;17.00;54.10;;;;;;4973951;28;20101;-61
2021/01/21 11:20:25;;;;;;;16.40;9.30;;;17.00;58.50;;;;;;4976408;28;20032;-62
2021/01/21 11:22:51;;;;;;;86.72;41.45;;;17.10;56.80;;;;;;4981501;28;20110;-60
2021/01/21 11:25:16;;;;;;;102.07;50.25;;;17.10;56.40;;;;;;4979409;28;20675;-59
2021/01/21 11:27:42;;;;;;;137.25;63.55;;;17.10;57.00;;;;;;4990009;28;20026;-59
2021/01/21 11:30:12;;;;;;;236.60;108.03;;;17.20;56.10;;;;;;4972947;28;20407;-59
2021/01/21 11:32:39;;;;;;;236.70;110.43;;;17.10;55.20;;;;;;4973974;28;20030;-60
2021/01/21 11:35:06;;;;;;;262.70;120.43;;;17.10;55.20;;;;;;4955720;28;20037;-60
2021/01/21 11:37:32;;;;;;;287.05;136.48;;;17.10;54.80;;;;;;4976540;28;20157;-60
2021/01/21 11:39:58;;;;;;;342.77;166.65;;;17.10;57.10;;;;;;4977877;28;20523;-59
2021/01/21 11:42:23;;;;;;;306.35;145.00;;;17.10;56.10;;;;;;4957904;28;20034;-61
2021/01/21 11:44:49;;;;;;;280.02;134.15;;;17.10;55.40;;;;;;4973626;28;20414;-60
2021/01/21 11:47:16;;;;;;;237.75;117.18;;;17.10;55.60;;;;;;4972642;28;20162;-59
2021/01/21 11:49:42;;;;;;;206.70;106.15;;;17.00;55.00;;;;;;4971211;28;20403;-61
2021/01/21 11:52:07;;;;;;;245.65;124.82;;;16.90;53.90;;;;;;4975201;28;20035;-61
2021/01/21 11:54:33;;;;;;;203.95;104.85;;;16.90;56.10;;;;;;4973158;28;20057;-60
2021/01/21 11:56:59;;;;;;;207.25;109.55;;;16.90;57.10;;;;;;4953776;28;20030;-59
2021/01/21 11:59:25;;;;;;;184.75;97.22;;;16.90;55.00;;;;;;4966832;28;20042;-60
2021/01/21 12:01:50;;;;;;;156.93;81.95;;;16.90;55.50;;;;;;4971290;28;20027;-60
2021/01/21 12:04:16;;;;;;;210.25;115.47;;;17.00;55.90;;;;;;4978169;28;20026;-61
2021/01/21 12:06:42;;;;;;;195.30;108.47;;;17.00;55.90;;;;;;4983217;28;20028;-60
2021/01/21 12:09:07;;;;;;;186.50;104.00;;;16.90;55.00;;;;;;4956982;28;20035;-59
2021/01/21 12:11:33;;;;;;;151.25;92.63;;;16.80;55.80;;;;;;4955957;28;20081;-59
2021/01/21 12:13:59;;;;;;;273.00;173.05;;;16.80;53.30;;;;;;4948366;28;20018;-61
2021/01/21 12:16:25;;;;;;;554.05;407.35;;;16.80;56.80;;;;;;4974498;28;20027;-60
2021/01/21 12:18:51;;;;;;;418.25;278.90;;;16.80;54.50;;;;;;4973056;28;20710;-60
2021/01/21 12:21:18;;;;;;;316.65;203.98;;;16.70;54.50;;;;;;4976987;28;20031;-60
2021/01/21 12:23:43;;;;;;;409.08;297.42;;;16.80;56.40;;;;;;4967699;28;20022;-60
2021/01/21 12:26:09;;;;;;;292.85;187.05;;;16.80;55.40;;;;;;4983018;28;20034;-60
2021/01/21 12:28:35;;;;;;;186.38;119.28;;;16.90;55.60;;;;;;4971469;28;20113;-60
2021/01/21 12:31:02;;;;;;;191.60;121.40;;;16.90;56.20;;;;;;4989222;28;20023;-61
2021/01/21 12:33:27;;;;;;;180.40;111.32;;;17.10;56.80;;;;;;4975359;28;20030;-59
2021/01/21 12:35:54;;;;;;;178.70;111.20;;;17.10;56.50;;;;;;4975025;28;20027;-61
2021/01/21 12:38:20;;;;;;;165.30;104.05;;;17.10;56.40;;;;;;4976116;28;20022;-60
2021/01/21 12:40:45;;;;;;;188.18;123.82;;;17.10;56.30;;;;;;4961838;28;20030;-61
2021/01/21 12:43:11;;;;;;;161.40;101.05;;;17.20;56.40;;;;;;4983688;28;20085;-59
2021/01/21 12:45:37;;;;;;;165.55;106.72;;;17.10;56.30;;;;;;4994151;28;20410;-59
2021/01/21 12:48:02;;;;;;;138.98;89.20;;;17.10;55.90;;;;;;4986691;28;20492;-60
2021/01/21 12:50:28;;;;;;;80.20;49.30;;;17.10;55.70;;;;;;4958857;28;20031;-67
2021/01/21 12:52:53;;;;;;;78.78;51.58;;;16.80;51.30;;;;;;4987259;28;20034;-65
2021/01/21 12:55:19;;;;;;;49.88;30.95;;;16.60;51.60;;;;;;4994144;28;20026;-68
2021/01/21 12:57:44;;;;;;;39.20;24.73;;;16.50;50.60;;;;;;4958775;28;20086;-66
2021/01/21 13:00:10;;;;;;;38.17;22.40;;;16.20;49.30;;;;;;4977999;28;20034;-68
2021/01/21 13:02:37;;;;;;;96.45;58.53;;;16.00;49.10;;;;;;4971261;28;20085;-67
2021/01/21 13:05:06;;;;;;;48.08;29.42;;;16.00;49.30;;;;;;4975802;28;20554;-66